createdAt,value
2022-10-30T00:03:05.350Z,14.54
2022-10-30T00:08:25.948Z,14.57
2022-10-30T00:13:46.743Z,14.56
2022-10-30T00:19:07.710Z,14.55
2022-10-30T00:24:29.290Z,14.53
2022-10-30T00:29:49.732Z,14.54
2022-10-30T00:35:11.265Z,14.42
2022-10-30T00:40:33.123Z,14.30
2022-10-30T00:45:54.122Z,14.22
2022-10-30T00:51:15.268Z,14.08
2022-10-30T00:56:37.054Z,14.10
2022-10-30T01:01:59.032Z,14.10
2022-10-30T01:07:20.064Z,13.99
2022-10-30T01:12:42.382Z,14.01
2022-10-30T01:18:29.339Z,14.15
2022-10-30T01:24:04.139Z,14.22
2022-10-30T01:29:37.169Z,14.25
2022-10-30T01:34:59.663Z,14.15
2022-10-30T01:40:21.422Z,14.08
2022-10-30T01:45:51.245Z,14.02
2022-10-30T01:51:24.666Z,13.74
2022-10-30T01:57:07.763Z,13.66
2022-10-30T02:02:32.947Z,13.72
2022-10-30T02:07:53.791Z,13.64
2022-10-30T02:13:14.860Z,13.64
2022-10-30T02:18:35.799Z,13.62
2022-10-30T02:23:57.432Z,13.58
2022-10-30T02:29:20.823Z,13.52
2022-10-30T02:34:43.003Z,13.61
2022-10-30T02:40:04.499Z,13.55
2022-10-30T02:45:25.478Z,13.51
2022-10-30T02:50:46.174Z,13.51
2022-10-30T02:56:12.860Z,13.59
2022-10-30T03:01:35.195Z,13.52
2022-10-30T03:06:56.270Z,13.54
2022-10-30T03:12:17.287Z,13.48
2022-10-30T03:17:39.065Z,13.35
2022-10-30T03:23:01.436Z,13.22
2022-10-30T03:28:23.485Z,13.30
2022-10-30T03:33:44.722Z,13.32
2022-10-30T03:39:06.276Z,13.30
2022-10-30T03:44:27.546Z,13.45
2022-10-30T03:49:49.508Z,13.54
2022-10-30T03:55:13.902Z,13.61
2022-10-30T04:00:36.975Z,13.36
2022-10-30T04:05:58.559Z,13.25
2022-10-30T04:11:19.329Z,13.13
2022-10-30T04:16:39.868Z,13.06
2022-10-30T04:22:00.862Z,12.93
2022-10-30T04:27:21.553Z,13.00
2022-10-30T04:32:47.662Z,13.10
2022-10-30T04:38:11.454Z,12.90
2022-10-30T04:43:32.330Z,12.87
2022-10-30T04:48:53.238Z,12.81
2022-10-30T04:54:14.188Z,12.76
2022-10-30T04:59:35.294Z,12.64
2022-10-30T05:04:55.947Z,12.64
2022-10-30T05:10:18.416Z,12.54
2022-10-30T05:15:39.568Z,12.69
2022-10-30T05:21:00.194Z,12.61
2022-10-30T05:26:21.062Z,12.67
2022-10-30T05:31:41.832Z,12.64
2022-10-30T05:37:11.493Z,12.54
2022-10-30T05:42:32.392Z,12.40
2022-10-30T05:48:02.783Z,12.52
2022-10-30T05:53:27.953Z,12.39
2022-10-30T05:58:50.493Z,12.28
2022-10-30T06:04:11.543Z,12.33
2022-10-30T06:09:32.279Z,12.39
2022-10-30T06:14:56.101Z,12.33
2022-10-30T06:20:18.767Z,12.48
2022-10-30T06:26:14.184Z,12.56
2022-10-30T06:31:43.467Z,12.71
2022-10-30T06:37:04.391Z,12.86
2022-10-30T06:42:25.413Z,12.96
2022-10-30T06:48:06.458Z,12.98
2022-10-30T06:53:33.607Z,12.99
2022-10-30T06:59:13.134Z,13.13
2022-10-30T07:04:46.747Z,13.22
2022-10-30T07:10:08.096Z,13.43
2022-10-30T07:15:59.263Z,13.60
2022-10-30T07:21:26.919Z,13.60
2022-10-30T07:26:47.764Z,13.72
2022-10-30T07:32:28.690Z,13.94
2022-10-30T07:38:05.233Z,13.99
2022-10-30T07:43:40.888Z,14.14
2022-10-30T07:49:20.590Z,14.17
2022-10-30T07:54:49.847Z,14.12
2022-10-30T08:00:29.409Z,14.17
2022-10-30T08:06:10.451Z,14.19
2022-10-30T08:11:32.739Z,14.30
2022-10-30T08:16:53.684Z,14.33
2022-10-30T08:22:15.188Z,14.32
2022-10-30T08:27:39.609Z,14.34
2022-10-30T08:33:10.125Z,14.56
2022-10-30T08:38:49.267Z,14.76
2022-10-30T08:44:34.675Z,14.93
2022-10-30T08:50:14.993Z,15.06
2022-10-30T08:55:36.057Z,15.16
2022-10-30T09:01:01.629Z,15.39
2022-10-30T09:06:49.140Z,15.57
2022-10-30T09:12:28.687Z,15.71
2022-10-30T09:17:56.764Z,15.91
2022-10-30T09:23:17.759Z,16.07
2022-10-30T09:28:42.223Z,16.26
2022-10-30T09:34:23.369Z,16.45
2022-10-30T09:40:57.782Z,16.55
2022-10-30T09:46:37.715Z,16.64
2022-10-30T09:52:21.738Z,16.66
2022-10-30T09:57:55.014Z,16.77
2022-10-30T10:03:25.551Z,16.89
2022-10-30T10:09:15.001Z,16.94
2022-10-30T10:15:11.859Z,17.19
2022-10-30T10:20:40.393Z,17.27
2022-10-30T10:26:09.168Z,17.43
2022-10-30T10:31:41.905Z,17.63
2022-10-30T10:37:46.892Z,17.74
2022-10-30T10:43:22.980Z,17.83
2022-10-30T10:49:01.974Z,18.10
2022-10-30T10:54:50.785Z,18.41
2022-10-30T11:00:14.623Z,18.51
2022-10-30T11:05:48.155Z,18.51
2022-10-30T11:11:08.849Z,18.58
2022-10-30T11:16:55.374Z,18.63
2022-10-30T11:22:31.651Z,18.67
2022-10-30T11:28:01.147Z,18.68
2022-10-30T11:33:23.156Z,18.68
2022-10-30T11:38:44.094Z,18.70
2022-10-30T11:44:06.613Z,18.69
2022-10-30T11:49:40.425Z,18.68
2022-10-30T11:55:10.587Z,18.58
2022-10-30T12:00:34.737Z,18.58
2022-10-30T12:06:16.350Z,18.59
2022-10-30T12:11:39.676Z,18.58
2022-10-30T12:17:00.282Z,18.60
2022-10-30T12:22:27.529Z,18.62
2022-10-30T12:27:48.298Z,18.63
2022-10-30T12:33:16.332Z,18.67
2022-10-30T12:38:58.675Z,18.71
2022-10-30T12:44:47.466Z,18.76
2022-10-30T12:50:20.610Z,18.79
2022-10-30T12:55:46.337Z,18.83
2022-10-30T13:01:13.240Z,18.87
2022-10-30T13:06:41.457Z,18.91
2022-10-30T13:12:33.761Z,18.89
2022-10-30T13:17:59.001Z,18.82
2022-10-30T13:23:31.530Z,18.71
2022-10-30T13:29:03.754Z,18.84
2022-10-30T13:34:41.238Z,18.81
2022-10-30T13:40:40.681Z,18.87
2022-10-30T13:46:04.332Z,18.82
2022-10-30T13:51:52.730Z,18.80
2022-10-30T13:57:41.693Z,18.99
2022-10-30T14:03:24.396Z,18.87
2022-10-30T14:08:57.377Z,18.72
2022-10-30T14:14:24.332Z,18.68
2022-10-30T14:20:14.383Z,18.66
2022-10-30T14:25:35.811Z,18.67
2022-10-30T14:31:13.365Z,18.73
2022-10-30T14:36:34.006Z,18.75
2022-10-30T14:42:16.240Z,18.80
2022-10-30T14:48:16.113Z,18.96
2022-10-30T14:54:01.381Z,18.91
2022-10-30T14:59:33.619Z,18.87
2022-10-30T15:05:23.759Z,18.62
2022-10-30T15:11:02.794Z,18.37
2022-10-30T15:16:24.613Z,18.15
2022-10-30T15:21:50.133Z,18.13
2022-10-30T15:27:19.455Z,18.10
2022-10-30T15:32:41.273Z,18.08
2022-10-30T15:38:07.378Z,17.99
2022-10-30T15:43:35.733Z,17.90
2022-10-30T15:48:56.646Z,17.87
2022-10-30T15:54:21.361Z,17.78
2022-10-30T15:59:51.936Z,17.69
2022-10-30T16:05:21.601Z,17.58
2022-10-30T16:10:44.181Z,17.44
2022-10-30T16:16:05.653Z,17.31
2022-10-30T16:21:31.212Z,17.20
2022-10-30T16:27:15.875Z,17.16
2022-10-30T16:32:36.821Z,16.98
2022-10-30T16:37:57.969Z,17.01
2022-10-30T16:43:26.730Z,16.92
2022-10-30T16:48:58.755Z,16.85
2022-10-30T16:54:23.663Z,16.94
2022-10-30T16:59:48.436Z,16.91
2022-10-30T17:05:23.067Z,16.87
2022-10-30T17:11:22.307Z,16.75
2022-10-30T17:16:53.081Z,16.65
2022-10-30T17:22:18.158Z,16.55
2022-10-30T17:27:57.713Z,16.41
2022-10-30T17:33:23.588Z,16.35
2022-10-30T17:38:44.618Z,16.33
2022-10-30T17:44:06.511Z,16.21
2022-10-30T17:49:32.393Z,16.19
2022-10-30T17:54:53.604Z,16.10
2022-10-30T18:00:14.737Z,16.04
2022-10-30T18:05:36.401Z,15.93
2022-10-30T18:10:57.005Z,15.92
2022-10-30T18:16:19.109Z,15.89
2022-10-30T18:21:41.020Z,15.83
2022-10-30T18:27:01.959Z,15.79
2022-10-30T18:32:22.594Z,15.65
2022-10-30T18:37:43.305Z,15.38
2022-10-30T18:43:04.107Z,15.20
2022-10-30T18:48:24.899Z,15.20
2022-10-30T18:53:52.087Z,15.15
2022-10-30T18:59:12.961Z,15.09
2022-10-30T19:04:33.713Z,15.08
2022-10-30T19:09:55.893Z,15.17
2022-10-30T19:15:26.381Z,15.21
2022-10-30T19:21:05.132Z,15.11
2022-10-30T19:26:28.009Z,15.05
2022-10-30T19:31:49.327Z,15.03
2022-10-30T19:37:10.257Z,15.11
2022-10-30T19:42:31.057Z,15.06
2022-10-30T19:47:57.005Z,14.98
2022-10-30T19:53:17.730Z,14.91
2022-10-30T19:58:39.739Z,15.00
2022-10-30T20:04:00.232Z,14.90
2022-10-30T20:09:22.543Z,14.66
2022-10-30T20:14:43.206Z,14.62
2022-10-30T20:20:04.132Z,14.67
2022-10-30T20:25:26.723Z,14.70
2022-10-30T20:30:47.973Z,14.65
2022-10-30T20:36:12.082Z,14.62
2022-10-30T20:41:33.345Z,14.50
2022-10-30T20:46:53.880Z,14.38
2022-10-30T20:52:14.780Z,14.58
2022-10-30T20:57:35.361Z,14.50
2022-10-30T21:02:56.158Z,14.50
2022-10-30T21:08:16.894Z,14.49
2022-10-30T21:13:39.447Z,14.49
2022-10-30T21:19:00.175Z,14.47
2022-10-30T21:24:20.907Z,14.37
2022-10-30T21:29:41.583Z,14.43
2022-10-30T21:35:02.373Z,14.36
2022-10-30T21:40:22.999Z,14.42
2022-10-30T21:45:43.621Z,14.42
2022-10-30T21:51:12.740Z,14.30
2022-10-30T21:56:36.215Z,14.30
2022-10-30T22:01:57.114Z,14.15
2022-10-30T22:07:18.578Z,14.14
2022-10-30T22:12:39.411Z,14.11
2022-10-30T22:18:00.320Z,14.11
2022-10-30T22:23:21.053Z,14.11
2022-10-30T22:28:42.396Z,13.89
2022-10-30T22:34:03.160Z,13.78
2022-10-30T22:39:23.859Z,13.83
2022-10-30T22:44:44.527Z,13.93
2022-10-30T22:50:05.643Z,13.94
2022-10-30T22:55:28.314Z,13.91
2022-10-30T23:00:48.908Z,13.99
2022-10-30T23:06:09.777Z,13.97
2022-10-30T23:11:31.147Z,13.98
2022-10-30T23:16:51.875Z,14.03
2022-10-30T23:22:12.784Z,13.95
2022-10-30T23:27:33.409Z,13.85
2022-10-30T23:32:54.494Z,13.75
2022-10-30T23:38:15.131Z,13.61
2022-10-30T23:43:35.888Z,13.64
2022-10-30T23:48:57.132Z,13.44
2022-10-30T23:54:18.125Z,13.45
2022-10-30T23:59:38.571Z,13.57
